Genco Loire — V7GN8 — position and weather

sailwx.info

Track history (hours):
 
Tides and Currents Weather Stations Pressure Air Temp Water Temp Dewpoint Dewpoint Depression Visibility Wind Speed Wind Dir Waves Ship Positions

Genco Loire

Last reported at 2014-Sep-19 16:19 UTC. Time now 2014-Sep-21 08:07 UTC.
Position N 31°17' E 121°50'.

Length 190 m; draft 7 m.

MMSI: 538002760.

Date/timePositionNaut miles runAvg speedWind from/ knotsBaromVisibWave heightAir tempDewpointWater temp
2014-Sep-19 16:19N 31°17' E 121°50'1013.2
2014-Sep-19 15:33N 31°21' E 121°40'1010.4
2014-Sep-19 14:33N 31°26' E 121°29'1010.3
2014-Sep-19 13:32N 31°33' E 121°20'1312.8
2014-Sep-19 12:31N 31°42' E 121°09'1312.9
2014-Sep-19 11:33N 31°48' E 120°56'1414.0
2014-Sep-19 10:33N 32°00' E 120°48'1212.5
2014-Sep-19 09:33N 32°02' E 120°34'1010.0
2014-Sep-19 08:34N 32°00' E 120°22'1212.0
2014-Sep-19 07:33N 31°56' E 120°09'1313.1
2014-Sep-19 06:34N 32°03' E 119°56'  
2014-Sep-17 00:17N 32°10' E 119°54'6 7.9
2014-Sep-16 23:32N 32°05' E 119°56'0 0.1
2014-Sep-16 22:17N 32°04' E 119°56'0 0.1
2014-Sep-16 21:29N 32°04' E 119°56'0 0.0
2014-Sep-16 20:29N 32°04' E 119°56'0 0.1
2014-Sep-16 19:29N 32°04' E 119°56'0 0.0
2014-Sep-16 18:32N 32°04' E 119°56'0 0.0
2014-Sep-16 17:32N 32°04' E 119°56'0 0.0
2014-Sep-16 16:29N 32°04' E 119°56'0 0.0
2014-Sep-16 15:11N 32°04' E 119°56'0 0.1
2014-Sep-16 14:23N 32°04' E 119°56'0 0.0
2014-Sep-16 13:29N 32°04' E 119°56'0 0.0
2014-Sep-16 12:23N 32°04' E 119°56'0 0.1
2014-Sep-16 11:23N 32°04' E 119°56'0 0.0
2014-Sep-16 10:14N 32°04' E 119°56'0 0.0
2014-Sep-16 09:32N 32°04' E 119°56'3 2.5
2014-Sep-16 08:32N 32°02' E 119°57'9 9.2
2014-Sep-16 07:33N 31°57' E 120°06'9 8.5
2014-Sep-16 06:33N 31°57' E 120°16'9 8.6
2014-Sep-16 05:33N 31°58' E 120°26'6 6.2
2014-Sep-16 04:33N 32°01' E 120°32'10 9.9
2014-Sep-16 03:33N 32°00' E 120°44'8 8.2
2014-Sep-16 02:33N 31°56' E 120°52'12 9.9
2014-Sep-16 01:23N 31°47' E 120°60'1210.9
2014-Sep-16 00:16N 31°40' E 121°12'811.6
2014-Sep-15 23:33N 31°34' E 121°19'1110.9
2014-Sep-15 22:33N 31°27' E 121°28'10 9.7
2014-Sep-15 21:32N 31°22' E 121°38'1210.4
2014-Sep-15 20:23N 31°17' E 121°51'9 9.8
2014-Sep-15 19:29N 31°15' E 122°01'465 8.9
2014-Sep-13 15:32N 23°43' E 119°56'2317.1
2014-Sep-13 14:12N 23°20' E 119°55'2715.2
2014-Sep-13 12:25N 22°53' E 119°55'1214.1
2014-Sep-13 11:33N 22°41' E 119°55'1313.0
2014-Sep-13 10:33N 22°28' E 119°55'  
Track history (hours):
 
Tides and Currents Weather Stations Pressure Air Temp Water Temp Dewpoint Dewpoint Depression Visibility Wind Speed Wind Dir Waves Ship Positions

Genco Loire

Last reported at 2014-Sep-19 16:19 UTC. Time now 2014-Sep-21 08:07 UTC.
Position N 31°17' E 121°50'.

Length 190 m; draft 7 m.

MMSI: 538002760.

Date/timePositionNaut miles runAvg speedWind from/ knotsBaromVisibWave heightAir tempDewpointWater temp
2014-Sep-19 16:19N 31°17' E 121°50'1013.2
2014-Sep-19 15:33N 31°21' E 121°40'1010.4
2014-Sep-19 14:33N 31°26' E 121°29'1010.3
2014-Sep-19 13:32N 31°33' E 121°20'1312.8
2014-Sep-19 12:31N 31°42' E 121°09'1312.9
2014-Sep-19 11:33N 31°48' E 120°56'1414.0
2014-Sep-19 10:33N 32°00' E 120°48'1212.5
2014-Sep-19 09:33N 32°02' E 120°34'1010.0
2014-Sep-19 08:34N 32°00' E 120°22'1212.0
2014-Sep-19 07:33N 31°56' E 120°09'1313.1
2014-Sep-19 06:34N 32°03' E 119°56'  
2014-Sep-17 00:17N 32°10' E 119°54'6 7.9
2014-Sep-16 23:32N 32°05' E 119°56'0 0.1
2014-Sep-16 22:17N 32°04' E 119°56'0 0.1
2014-Sep-16 21:29N 32°04' E 119°56'0 0.0
2014-Sep-16 20:29N 32°04' E 119°56'0 0.1
2014-Sep-16 19:29N 32°04' E 119°56'0 0.0
2014-Sep-16 18:32N 32°04' E 119°56'0 0.0
2014-Sep-16 17:32N 32°04' E 119°56'0 0.0
2014-Sep-16 16:29N 32°04' E 119°56'0 0.0
2014-Sep-16 15:11N 32°04' E 119°56'0 0.1
2014-Sep-16 14:23N 32°04' E 119°56'0 0.0
2014-Sep-16 13:29N 32°04' E 119°56'0 0.0
2014-Sep-16 12:23N 32°04' E 119°56'0 0.1
2014-Sep-16 11:23N 32°04' E 119°56'0 0.0
2014-Sep-16 10:14N 32°04' E 119°56'0 0.0
2014-Sep-16 09:32N 32°04' E 119°56'3 2.5
2014-Sep-16 08:32N 32°02' E 119°57'9 9.2
2014-Sep-16 07:33N 31°57' E 120°06'9 8.5
2014-Sep-16 06:33N 31°57' E 120°16'9 8.6
2014-Sep-16 05:33N 31°58' E 120°26'6 6.2
2014-Sep-16 04:33N 32°01' E 120°32'10 9.9
2014-Sep-16 03:33N 32°00' E 120°44'8 8.2
2014-Sep-16 02:33N 31°56' E 120°52'12 9.9
2014-Sep-16 01:23N 31°47' E 120°60'1210.9
2014-Sep-16 00:16N 31°40' E 121°12'811.6
2014-Sep-15 23:33N 31°34' E 121°19'1110.9
2014-Sep-15 22:33N 31°27' E 121°28'10 9.7
2014-Sep-15 21:32N 31°22' E 121°38'1210.4
2014-Sep-15 20:23N 31°17' E 121°51'9 9.8
2014-Sep-15 19:29N 31°15' E 122°01'465 8.9
2014-Sep-13 15:32N 23°43' E 119°56'2317.1
2014-Sep-13 14:12N 23°20' E 119°55'2715.2
2014-Sep-13 12:25N 22°53' E 119°55'1214.1
2014-Sep-13 11:33N 22°41' E 119°55'1313.0
2014-Sep-13 10:33N 22°28' E 119°55'  

Dump ship's entire track history